Time;durP1;ratioP1;P1;durP2;ratioP2;P2;SDS_P1;SDS_P2;PMS_P1;PMS_P2;Temp;Humidity;BMP_temperature;BMP_pressure;BME280_temperature;BME280_humidity;BME280_pressure;Samples;Min_cycle;Max_cycle;Signal;HPM_P1;HPM_P2
2021/10/17 00:00:19;;;;;;;8.38;3.50;;;;;;;12.38;100.00;96983.84;5024108;28;20089;-65
2021/10/17 00:02:46;;;;;;;9.57;3.92;;;;;;;12.38;100.00;96981.06;5024373;28;20056;-63
2021/10/17 00:05:15;;;;;;;5.50;2.97;;;;;;;12.71;100.00;97035.75;5025157;28;20430;-63
2021/10/17 00:07:42;;;;;;;6.45;3.15;;;;;;;12.18;100.00;96968.56;5025383;28;20056;-62
2021/10/17 00:10:14;;;;;;;12.23;4.20;;;;;;;12.63;100.00;97037.63;5024089;28;20051;-63
2021/10/17 00:12:42;;;;;;;5.85;3.45;;;;;;;12.42;100.00;96972.75;5025154;28;20631;-65
2021/10/17 00:15:11;;;;;;;8.13;3.70;;;;;;;12.60;100.00;97030.06;5025116;28;20436;-64
2021/10/17 00:17:39;;;;;;;7.53;4.00;;;;;;;12.57;100.00;97019.72;5024946;28;20536;-63
2021/10/17 00:20:09;;;;;;;7.53;3.70;;;;;;;12.69;99.90;97027.78;5025234;28;20049;-62
2021/10/17 00:22:36;;;;;;;7.03;4.15;;;;;;;12.72;99.64;97021.47;5024912;28;20535;-63
2021/10/17 00:25:04;;;;;;;10.88;4.55;;;;;;;12.70;99.29;97017.44;5024661;28;20046;-64
2021/10/17 00:27:30;;;;;;;6.32;4.30;;;;;;;12.34;100.00;96983.03;5025091;28;20046;-63
2021/10/17 00:29:57;;;;;;;6.13;3.90;;;;;;;12.70;100.00;97021.03;5024916;28;20534;-64
2021/10/17 00:32:25;;;;;;;4.63;3.10;;;;;;;12.76;99.47;97016.72;5024497;28;20500;-63
2021/10/17 00:34:52;;;;;;;6.72;2.88;;;;;;;12.91;96.67;97021.22;5024396;28;20080;-63
2021/10/17 00:37:19;;;;;;;4.55;3.58;;;;;;;12.66;98.91;97033.31;5024633;28;20100;-63
2021/10/17 00:39:46;;;;;;;8.45;4.70;;;;;;;11.95;100.00;96976.25;5023138;28;20063;-64
2021/10/17 00:42:14;;;;;;;15.90;8.07;;;;;;;12.06;100.00;97000.19;5023157;28;20057;-63
2021/10/17 00:44:41;;;;;;;7.18;3.85;;;;;;;12.36;100.00;97022.28;5024601;28;20053;-64
2021/10/17 00:47:08;;;;;;;5.85;3.08;;;;;;;12.27;100.00;97027.38;5024968;28;20049;-63
2021/10/17 00:49:35;;;;;;;5.32;3.10;;;;;;;12.08;100.00;97028.38;5024570;28;20049;-63
2021/10/17 00:52:03;;;;;;;19.63;8.68;;;;;;;11.97;100.00;96990.56;5024219;28;20140;-64
2021/10/17 00:54:29;;;;;;;16.75;7.80;;;;;;;12.29;100.00;97024.22;5023884;28;20064;-64
2021/10/17 00:56:56;;;;;;;15.73;7.57;;;;;;;12.39;100.00;97034.63;5024693;28;20045;-64
2021/10/17 00:59:23;;;;;;;12.95;7.03;;;;;;;12.60;100.00;97035.63;5022545;28;20520;-65
2021/10/17 01:01:50;;;;;;;5.43;3.22;;;;;;;11.05;100.00;96893.56;5022146;28;20049;-63
2021/10/17 01:04:17;;;;;;;10.82;5.47;;;;;;;11.49;100.00;96936.09;5024718;28;20084;-64
2021/10/17 01:06:43;;;;;;;18.42;6.93;;;;;;;11.56;100.00;96945.28;5022206;28;20046;-64
2021/10/17 01:09:10;;;;;;;10.23;5.10;;;;;;;12.17;100.00;97039.97;5024086;28;20052;-65
2021/10/17 01:11:42;;;;;;;5.55;3.30;;;;;;;12.30;100.00;97032.16;5023984;28;20052;-64
2021/10/17 01:14:09;;;;;;;6.05;3.33;;;;;;;12.06;100.00;96988.31;5023665;28;20074;-63
2021/10/17 01:16:39;;;;;;;3.95;3.08;;;;;;;12.36;100.00;97027.84;5023561;28;20057;-63
2021/10/17 01:19:06;;;;;;;2.17;1.98;;;;;;;11.89;100.00;96955.59;5024033;28;20143;-65
2021/10/17 01:21:36;;;;;;;3.28;2.35;;;;;;;11.98;100.00;96981.06;5024411;28;20059;-63
2021/10/17 01:24:03;;;;;;;88.55;24.15;;;;;;;12.06;100.00;96971.66;5024168;28;20443;-64
2021/10/17 01:26:30;;;;;;;52.60;17.15;;;;;;;12.41;100.00;97030.28;5022568;28;20054;-63
2021/10/17 01:28:56;;;;;;;64.53;21.40;;;;;;;12.35;100.00;97023.50;5023772;28;20057;-63
2021/10/17 01:31:42;;;;;;;116.85;42.20;;;;;;;12.39;100.00;97029.91;5022173;28;20586;-63
2021/10/17 01:34:09;;;;;;;34.58;14.68;;;;;;;12.47;100.00;97028.75;5022007;28;20539;-63
2021/10/17 01:36:38;;;;;;;10.35;5.38;;;;;;;12.47;100.00;97031.53;5024013;28;20058;-63
2021/10/17 01:39:06;;;;;;;8.93;4.72;;;;;;;12.49;100.00;97033.97;5024049;28;20053;-64
2021/10/17 01:41:33;;;;;;;9.20;4.95;;;;;;;12.53;100.00;97032.81;5024166;28;20076;-65
2021/10/17 01:44:06;;;;;;;23.15;12.70;;;;;;;12.37;100.00;97043.34;5023526;28;20058;-64
2021/10/17 01:46:33;;;;;;;7.57;5.15;;;;;;;12.46;100.00;97057.72;5023914;28;20053;-63
2021/10/17 01:49:00;;;;;;;6.10;4.05;;;;;;;12.47;100.00;97042.63;5023834;28;20087;-64
2021/10/17 01:51:26;;;;;;;3.60;2.33;;;;;;;12.44;100.00;97042.63;5023880;28;20513;-62
2021/10/17 01:53:53;;;;;;;4.43;2.60;;;;;;;12.45;98.55;97047.81;5022025;28;20045;-64
2021/10/17 01:56:20;;;;;;;13.45;6.80;;;;;;;12.17;99.08;97000.31;5023985;28;20481;-62
2021/10/17 01:58:46;;;;;;;7.07;4.15;;;;;;;12.27;99.82;97010.72;5022943;28;20045;-64
2021/10/17 02:01:13;;;;;;;3.42;2.08;;;;;;;12.26;99.31;97002.75;5022056;28;20053;-64
2021/10/17 02:03:40;;;;;;;2.50;1.80;;;;;;;12.39;99.36;97034.63;5022362;28;20053;-64
2021/10/17 02:06:07;;;;;;;6.82;3.30;;;;;;;11.92;99.90;96946.50;5022189;28;20060;-64
2021/10/17 02:08:34;;;;;;;5.25;3.47;;;;;;;12.51;99.06;97042.69;5023575;28;20628;-63
2021/10/17 02:11:00;;;;;;;1.42;1.33;;;;;;;11.61;96.79;96917.22;5023630;28;20049;-64
2021/10/17 02:13:27;;;;;;;2.90;2.38;;;;;;;12.40;95.08;97045.38;5027325;28;20099;-64
2021/10/17 02:15:54;;;;;;;1.00;1.00;;;;;;;12.41;93.57;97041.41;5027324;28;20059;-63
2021/10/17 02:18:20;;;;;;;1.33;1.23;;;;;;;12.26;94.05;97053.56;5027388;28;20050;-64
2021/10/17 02:20:48;;;;;;;1.73;1.40;;;;;;;12.14;93.79;97028.81;5027549;28;20497;-64
2021/10/17 02:23:14;;;;;;;2.13;1.88;;;;;;;12.30;94.30;97048.81;5027092;28;20651;-63
2021/10/17 02:25:41;;;;;;;1.92;1.73;;;;;;;12.26;93.66;97058.31;5027254;28;20050;-64
2021/10/17 02:28:08;;;;;;;3.30;2.72;;;;;;;12.29;94.14;97057.53;5027323;28;20049;-63
2021/10/17 02:30:35;;;;;;;3.13;2.25;;;;;;;12.28;93.27;97062.31;5025742;28;20424;-63
2021/10/17 02:33:02;;;;;;;1.42;1.20;;;;;;;12.04;92.71;97026.75;5027421;28;20054;-64
2021/10/17 02:35:28;;;;;;;7.45;4.22;;;;;;;11.80;93.08;96968.97;5026853;28;20060;-63
2021/10/17 02:37:55;;;;;;;22.85;8.98;;;;;;;11.88;93.47;97015.06;5027049;28;20540;-63
2021/10/17 02:40:22;;;;;;;4.55;2.20;;;;;;;12.26;92.74;97055.53;5026738;28;20147;-64
2021/10/17 02:42:48;;;;;;;4.22;2.60;;;;;;;12.29;92.86;97072.25;5026939;28;20073;-65
2021/10/17 02:45:15;;;;;;;17.27;8.15;;;;;;;12.23;93.50;97059.88;5025225;28;20045;-64
2021/10/17 02:47:42;;;;;;;22.77;9.90;;;;;;;12.23;94.18;97065.44;5026736;28;20144;-63
2021/10/17 02:50:09;;;;;;;2.03;1.77;;;;;;;12.24;95.08;97058.69;5025403;28;20059;-63
2021/10/17 02:52:35;;;;;;;1.15;1.10;;;;;;;12.20;93.77;97066.19;5025723;28;20053;-65
2021/10/17 02:55:02;;;;;;;4.55;3.20;;;;;;;11.95;93.05;97026.22;5026555;28;20065;-65
2021/10/17 02:57:29;;;;;;;3.80;2.47;;;;;;;11.99;95.16;97027.09;5026144;28;20050;-63
2021/10/17 02:59:56;;;;;;;15.23;7.70;;;;;;;12.24;94.35;97072.56;5026801;28;20136;-64
2021/10/17 03:02:22;;;;;;;3.67;3.03;;;;;;;12.18;92.23;97074.09;5026658;28;20049;-64
2021/10/17 03:04:49;;;;;;;5.32;2.25;;;;;;;11.63;92.15;96994.56;5026256;28;20049;-66
2021/10/17 03:07:16;;;;;;;2.80;1.90;;;;;;;12.18;91.71;97068.53;5026397;28;20055;-64
2021/10/17 03:09:43;;;;;;;2.25;1.70;;;;;;;12.19;92.82;97065.38;5026526;28;20126;-65
2021/10/17 03:12:09;;;;;;;2.30;1.67;;;;;;;11.91;92.59;97042.06;5026262;28;20071;-66
2021/10/17 03:14:36;;;;;;;10.52;1.52;;;;;;;12.02;93.24;97065.19;5025744;28;20079;-64
2021/10/17 03:17:06;;;;;;;2.00;1.63;;;;;;;12.12;91.94;97081.19;5024992;28;20049;-64
2021/10/17 03:19:33;;;;;;;6.35;2.70;;;;;;;12.14;91.88;97084.34;5024896;28;20045;-63
2021/10/17 03:22:01;;;;;;;5.50;2.88;;;;;;;11.92;93.47;97065.84;5024954;28;20053;-64
2021/10/17 03:24:27;;;;;;;6.85;3.35;;;;;;;11.99;94.43;97077.06;5024221;28;20479;-63
2021/10/17 03:26:54;;;;;;;20.42;10.48;;;;;;;11.99;94.06;97080.63;5026269;28;20056;-64
2021/10/17 03:29:21;;;;;;;14.45;7.88;;;;;;;11.89;93.69;97083.25;5012991;28;26007;-62
2021/10/17 03:31:48;;;;;;;4.25;2.40;;;;;;;11.92;92.63;97088.06;5025554;28;20611;-67
2021/10/17 03:34:16;;;;;;;1.60;1.33;;;;;;;11.95;92.18;97092.84;5025666;28;20053;-63
2021/10/17 03:36:43;;;;;;;1.45;1.35;;;;;;;11.93;92.60;97092.44;5025482;28;20060;-66
2021/10/17 03:39:10;;;;;;;1.10;1.10;;;;;;;11.85;92.49;97082.44;5025969;28;20598;-67
2021/10/17 03:41:36;;;;;;;1.40;1.17;;;;;;;11.94;92.51;97103.19;5025990;28;20049;-68
2021/10/17 03:44:04;;;;;;;2.33;1.50;;;;;;;12.00;92.45;97100.84;5024964;28;20061;-66
2021/10/17 03:46:31;;;;;;;1.92;1.63;;;;;;;11.56;92.08;97030.47;5025819;28;20428;-64
2021/10/17 03:48:58;;;;;;;61.17;25.98;;;;;;;9.88;92.79;96755.44;5025647;28;20050;-63
2021/10/17 03:51:24;;;;;;;35.75;14.90;;;;;;;11.93;93.30;97098.78;5024093;28;20050;-65
2021/10/17 03:53:51;;;;;;;14.10;7.18;;;;;;;11.96;93.22;97105.56;5025423;28;20053;-69
2021/10/17 03:56:18;;;;;;;9.68;4.82;;;;;;;11.57;93.15;97043.97;5025421;28;20084;-67
2021/10/17 03:58:45;;;;;;;15.75;8.27;;;;;;;12.01;93.08;97108.03;5025804;28;20063;-67
2021/10/17 04:01:11;;;;;;;4.43;3.38;;;;;;;11.96;94.51;97108.34;5025103;28;20060;-67
2021/10/17 04:03:38;;;;;;;8.00;5.03;;;;;;;11.89;94.74;97111.81;5026343;28;20065;-69
2021/10/17 04:06:08;;;;;;;16.10;7.43;;;;;;;10.79;94.98;96926.84;5023752;28;20132;-67
2021/10/17 04:08:35;;;;;;;13.80;6.63;;;;;;;11.68;93.54;97061.59;5025046;28;20053;-66
2021/10/17 04:11:02;;;;;;;5.10;3.60;;;;;;;12.01;92.73;97105.25;5025304;28;20053;-66
2021/10/17 04:13:29;;;;;;;5.57;3.90;;;;;;;11.58;93.17;97042.00;5024980;28;20068;-69
2021/10/17 04:15:58;;;;;;;7.88;4.55;;;;;;;11.76;93.96;97068.84;5024529;28;20061;-69
2021/10/17 04:18:25;;;;;;;6.03;4.50;;;;;;;11.29;94.47;97017.84;5023615;28;20053;-67
2021/10/17 04:20:52;;;;;;;5.10;3.15;;;;;;;12.08;94.41;97102.53;5024991;28;20140;-67
2021/10/17 04:23:19;;;;;;;10.05;5.32;;;;;;;11.79;94.03;97073.63;5024263;28;20469;-66
2021/10/17 04:25:45;;;;;;;13.18;6.90;;;;;;;12.20;93.81;97116.19;5025157;28;20072;-66
2021/10/17 04:28:12;;;;;;;12.15;7.05;;;;;;;12.23;94.03;97121.75;5023646;28;20049;-65
2021/10/17 04:30:39;;;;;;;7.30;5.07;;;;;;;12.27;94.84;97113.47;5023004;28;20568;-66
2021/10/17 04:33:06;;;;;;;9.23;5.80;;;;;;;11.43;94.42;97004.19;5024405;28;20406;-66
2021/10/17 04:35:37;;;;;;;5.03;3.60;;;;;;;12.27;93.96;97127.34;5024503;28;20539;-68
2021/10/17 04:38:06;;;;;;;3.05;2.53;;;;;;;11.85;91.13;97060.22;5024738;28;20550;-65
2021/10/17 04:40:34;;;;;;;3.80;2.95;;;;;;;12.09;91.96;97129.13;5023529;28;20050;-68
2021/10/17 04:43:01;;;;;;;5.13;2.95;;;;;;;12.05;90.26;97119.94;5025453;28;20053;-67
2021/10/17 04:45:28;;;;;;;6.90;3.83;;;;;;;12.18;89.49;97137.97;5024669;28;20076;-67
2021/10/17 04:47:55;;;;;;;2.47;2.20;;;;;;;11.84;90.10;97086.38;5024713;28;20053;-66
2021/10/17 04:50:21;;;;;;;4.95;3.17;;;;;;;12.04;90.67;97143.34;5024397;28;20057;-67
2021/10/17 04:52:48;;;;;;;6.32;3.30;;;;;;;12.02;90.06;97143.72;5024377;28;20140;-67
2021/10/17 04:55:15;;;;;;;4.07;3.47;;;;;;;11.78;88.38;97132.28;5024542;28;20224;-67
2021/10/17 04:57:41;;;;;;;3.88;2.60;;;;;;;12.14;88.46;97153.78;5024552;28;20053;-67
2021/10/17 05:00:08;;;;;;;7.38;4.18;;;;;;;11.83;88.44;97098.66;5024598;28;20175;-67
2021/10/17 05:02:35;;;;;;;7.78;4.28;;;;;;;12.14;87.34;97156.56;5024285;28;20158;-67
2021/10/17 05:05:04;;;;;;;9.23;4.43;;;;;;;12.06;87.55;97154.88;5023980;28;20091;-67
2021/10/17 05:07:31;;;;;;;6.93;3.15;;;;;;;11.70;87.39;97091.75;5023899;28;20049;-67
2021/10/17 05:09:58;;;;;;;28.20;9.95;;;;;;;12.05;89.21;97158.81;5023533;28;20136;-70
2021/10/17 05:12:25;;;;;;;28.33;9.52;;;;;;;12.05;90.05;97164.38;5022746;28;20065;-67
2021/10/17 05:14:51;;;;;;;21.42;9.43;;;;;;;12.03;89.79;97177.81;5023444;28;20150;-67
2021/10/17 05:17:18;;;;;;;12.30;4.93;;;;;;;12.05;89.25;97181.03;5024042;28;20064;-68
2021/10/17 05:19:45;;;;;;;7.97;3.35;;;;;;;12.07;91.29;97184.25;5024300;28;20210;-66
2021/10/17 05:22:11;;;;;;;12.23;5.20;;;;;;;11.80;90.94;97136.31;5023941;28;20056;-67
2021/10/17 05:24:38;;;;;;;9.13;4.88;;;;;;;12.05;91.35;97186.59;5023651;28;20052;-65
2021/10/17 05:27:05;;;;;;;9.20;4.53;;;;;;;12.04;93.10;97191.34;5022539;28;20052;-66
2021/10/17 05:29:32;;;;;;;10.02;5.20;;;;;;;12.18;91.05;97213.75;5023735;28;20057;-67
2021/10/17 05:31:58;;;;;;;8.38;4.80;;;;;;;11.18;91.23;97045.41;5023591;28;20064;-67
2021/10/17 05:34:25;;;;;;;7.25;4.95;;;;;;;12.18;90.74;97199.06;5022363;28;20056;-66
2021/10/17 05:36:52;;;;;;;4.47;3.40;;;;;;;12.27;90.44;97202.34;5023494;28;20440;-68
2021/10/17 05:39:18;;;;;;;4.07;2.95;;;;;;;12.32;90.79;97201.22;5022566;28;20052;-65
2021/10/17 05:41:45;;;;;;;4.07;3.67;;;;;;;12.31;91.11;97203.22;5023230;28;20053;-66
2021/10/17 05:44:11;;;;;;;3.38;2.65;;;;;;;12.34;90.04;97194.13;5022196;28;20050;-67
2021/10/17 05:46:38;;;;;;;5.47;3.30;;;;;;;12.00;90.27;97148.03;5021294;28;20055;-67
2021/10/17 05:49:05;;;;;;;4.47;3.40;;;;;;;12.49;90.40;97195.88;5023635;28;20139;-66
2021/10/17 05:51:32;;;;;;;4.47;2.38;;;;;;;12.49;90.68;97193.09;5023637;28;20049;-66
2021/10/17 05:53:59;;;;;;;4.60;2.67;;;;;;;12.62;89.12;97193.66;5021913;28;20057;-67
2021/10/17 05:56:26;;;;;;;2.42;1.75;;;;;;;12.08;89.22;97127.53;5022343;28;20068;-67
2021/10/17 05:58:53;;;;;;;6.35;3.80;;;;;;;12.73;88.21;97216.78;5021847;28;20049;-67
2021/10/17 06:01:19;;;;;;;5.55;2.80;;;;;;;12.84;87.91;97223.28;5022031;28;20527;-67
2021/10/17 06:03:46;;;;;;;6.35;4.20;;;;;;;12.90;87.77;97217.00;5021922;28;20049;-68
2021/10/17 06:06:13;;;;;;;12.55;7.53;;;;;;;12.68;88.95;97170.69;5023520;28;20045;-66
2021/10/17 06:08:40;;;;;;;10.23;5.43;;;;;;;12.97;87.73;97188.47;5021637;28;20505;-67
2021/10/17 06:11:07;;;;;;;6.50;3.90;;;;;;;13.19;88.01;97229.25;5023415;28;20516;-66
2021/10/17 06:13:35;;;;;;;3.60;2.42;;;;;;;12.97;87.55;97183.72;5023626;28;20050;-67
2021/10/17 06:16:01;;;;;;;3.22;2.47;;;;;;;12.60;88.36;97113.44;5021503;28;20131;-66
2021/10/17 06:18:28;;;;;;;6.55;3.15;;;;;;;13.26;89.44;97227.31;5021831;28;20162;-69
2021/10/17 06:20:55;;;;;;;7.45;3.03;;;;;;;13.28;87.88;97233.31;5023467;28;20057;-66
2021/10/17 06:23:22;;;;;;;9.75;3.50;;;;;;;12.98;87.06;97179.75;5023706;28;20049;-66
2021/10/17 06:25:48;;;;;;;6.57;4.10;;;;;;;12.96;87.17;97170.19;5021546;28;20083;-66
2021/10/17 06:28:15;;;;;;;9.40;4.45;;;;;;;13.48;87.03;97237.47;5022104;28;20053;-66
2021/10/17 06:30:42;;;;;;;3.22;2.65;;;;;;;13.14;85.90;97160.03;5023355;28;20152;-67
2021/10/17 06:33:09;;;;;;;6.40;3.10;;;;;;;13.11;85.54;97128.25;5021957;28;20669;-67
2021/10/17 06:35:36;;;;;;;3.88;2.47;;;;;;;13.90;83.85;97241.78;5023067;28;20084;-66
2021/10/17 06:38:03;;;;;;;3.22;2.10;;;;;;;13.25;83.15;97139.50;5021254;28;20065;-67
2021/10/17 06:40:30;;;;;;;12.00;4.38;;;;;;;12.31;84.02;97111.56;5021356;28;20057;-66
2021/10/17 06:42:57;;;;;;;4.40;1.98;;;;;;;13.55;84.14;97254.22;5023335;28;20056;-67
2021/10/17 06:45:24;;;;;;;1.52;1.42;;;;;;;13.87;80.57;97250.91;5023039;28;20049;-67
2021/10/17 06:47:50;;;;;;;2.13;1.65;;;;;;;13.97;81.78;97255.75;5021540;28;20060;-67
2021/10/17 06:50:20;;;;;;;4.22;3.65;;;;;;;14.13;81.68;97245.13;5023086;28;20057;-67
2021/10/17 06:52:49;;;;;;;5.70;3.25;;;;;;;14.30;81.38;97252.81;5022773;28;20496;-67
2021/10/17 06:55:16;;;;;;;4.90;2.70;;;;;;;14.50;79.69;97271.66;5022695;28;20049;-67
2021/10/17 06:57:45;;;;;;;3.40;2.78;;;;;;;14.44;78.08;97266.81;5022892;28;20879;-66
2021/10/17 07:00:12;;;;;;;2.80;2.10;;;;;;;14.46;77.11;97279.16;5024597;28;20069;-68
2021/10/17 07:02:39;;;;;;;2.17;1.90;;;;;;;14.01;76.17;97203.66;5026387;28;20045;-67
2021/10/17 07:05:06;;;;;;;7.68;6.80;;;;;;;14.36;76.54;97254.03;5026664;28;20053;-67
2021/10/17 07:07:33;;;;;;;1.98;1.58;;;;;;;14.56;77.32;97269.28;5026505;28;20060;-68
2021/10/17 07:10:00;;;;;;;2.38;1.77;;;;;;;14.36;77.15;97249.28;5024324;28;20481;-68
2021/10/17 07:12:27;;;;;;;1.70;1.60;;;;;;;14.15;75.82;97214.88;5026126;28;20045;-68
2021/10/17 07:14:54;;;;;;;3.53;2.20;;;;;;;14.63;75.81;97280.47;5026082;28;20093;-67
2021/10/17 07:17:21;;;;;;;2.08;1.52;;;;;;;14.79;76.08;97278.97;5026080;28;20057;-67
2021/10/17 07:19:48;;;;;;;1.35;1.25;;;;;;;14.99;74.15;97282.22;5025775;28;20053;-67
2021/10/17 07:22:15;;;;;;;6.78;2.63;;;;;;;15.12;73.43;97289.84;5025963;28;20065;-67
2021/10/17 07:24:42;;;;;;;2.35;1.45;;;;;;;14.64;73.23;97226.28;5024786;28;20064;-67
2021/10/17 07:27:08;;;;;;;2.38;2.00;;;;;;;15.25;72.77;97286.69;5026140;28;20053;-67
2021/10/17 07:29:35;;;;;;;3.78;2.47;;;;;;;15.53;72.48;97295.97;5024897;28;20060;-66
2021/10/17 07:32:02;;;;;;;3.80;3.05;;;;;;;15.73;71.26;97297.16;5026178;28;20045;-67
2021/10/17 07:34:29;;;;;;;2.47;2.28;;;;;;;15.46;71.43;97301.50;5025420;28;20057;-66
2021/10/17 07:36:55;;;;;;;5.15;2.22;;;;;;;15.61;70.53;97311.53;5025320;28;20556;-67
2021/10/17 07:39:22;;;;;;;94.50;58.40;;;;;;;15.17;70.60;97238.44;5024558;28;20053;-69
2021/10/17 07:41:49;;;;;;;4.70;4.30;;;;;;;15.88;68.93;97307.16;5025406;28;20049;-70
2021/10/17 07:44:17;;;;;;;4.75;2.55;;;;;;;15.52;69.99;97308.34;5025615;28;20250;-71
2021/10/17 07:46:44;;;;;;;1.95;1.58;;;;;;;15.01;70.10;97201.72;5024640;28;20045;-72
2021/10/17 07:49:11;;;;;;;1.40;1.30;;;;;;;13.76;69.64;97005.81;5025673;28;20046;-70
2021/10/17 07:51:37;;;;;;;1.80;1.70;;;;;;;15.50;70.14;97313.50;5025208;28;20057;-69
2021/10/17 07:54:04;;;;;;;3.20;2.35;;;;;;;15.43;70.91;97305.09;5025306;28;20069;-71
2021/10/17 07:56:31;;;;;;;2.72;2.45;;;;;;;15.26;70.77;97241.63;5025322;28;20471;-70
2021/10/17 07:58:58;;;;;;;1.73;1.63;;;;;;;15.40;70.73;97252.84;5025138;28;20057;-70
2021/10/17 08:01:25;;;;;;;1.70;1.60;;;;;;;15.86;70.34;97315.16;5025402;28;20065;-72
2021/10/17 08:03:52;;;;;;;3.03;2.25;;;;;;;15.91;69.23;97314.75;5025267;28;20057;-70
2021/10/17 08:06:18;;;;;;;1.55;1.50;;;;;;;15.40;68.76;97218.53;5025426;28;20052;-70
2021/10/17 08:08:45;;;;;;;1.70;1.60;;;;;;;15.63;70.89;97288.78;5023404;28;20045;-71
2021/10/17 08:11:12;;;;;;;1.70;1.60;;;;;;;13.98;69.98;96998.34;5024745;28;20061;-70
2021/10/17 08:13:39;;;;;;;2.00;1.90;;;;;;;15.99;69.23;97307.97;5023568;28;20053;-70
2021/10/17 08:16:06;;;;;;;1.70;1.60;;;;;;;15.96;68.82;97311.56;5022976;28;20511;-70
2021/10/17 08:18:33;;;;;;;2.97;1.85;;;;;;;16.12;68.53;97305.56;5023341;28;20440;-70
2021/10/17 08:20:59;;;;;;;2.53;2.20;;;;;;;16.00;69.13;97281.63;5025194;28;20045;-69
2021/10/17 08:23:26;;;;;;;4.05;2.83;;;;;;;16.13;68.49;97307.16;5025059;28;20041;-70
2021/10/17 08:25:53;;;;;;;4.53;2.47;;;;;;;15.97;71.51;97303.97;5024679;28;20045;-69
2021/10/17 08:28:20;;;;;;;3.65;2.70;;;;;;;15.93;69.54;97270.44;5024855;28;20057;-71
2021/10/17 08:30:48;;;;;;;2.92;2.35;;;;;;;16.55;68.89;97307.13;5022728;28;20055;-70
2021/10/17 08:33:15;;;;;;;2.30;1.95;;;;;;;16.02;66.75;97258.84;5024230;28;20069;-69
2021/10/17 08:35:43;;;;;;;2.40;2.20;;;;;;;16.68;66.91;97310.31;5024303;28;20511;-70
2021/10/17 08:38:10;;;;;;;1.88;1.77;;;;;;;16.73;67.12;97301.50;5024702;28;20053;-70
2021/10/17 08:40:39;;;;;;;1.95;1.85;;;;;;;15.88;67.95;97312.75;5025172;28;20053;-68
2021/10/17 08:43:06;;;;;;;1.90;1.80;;;;;;;15.93;68.84;97309.53;5022954;28;20502;-75
2021/10/17 08:45:33;;;;;;;2.20;2.10;;;;;;;16.50;69.15;97305.53;5022940;28;20057;-74
2021/10/17 08:48:01;;;;;;;1.88;1.77;;;;;;;16.95;66.21;97303.00;5022737;28;20051;-72
2021/10/17 08:50:28;;;;;;;2.40;2.20;;;;;;;16.77;66.10;97302.28;5024217;28;20057;-73
2021/10/17 08:52:55;;;;;;;3.20;2.38;;;;;;;17.09;64.61;97297.34;5022794;28;20057;-72
2021/10/17 08:55:22;;;;;;;6.57;2.30;;;;;;;17.09;64.44;97264.56;5022896;28;20610;-76
2021/10/17 08:57:52;;;;;;;3.30;2.78;;;;;;;17.29;61.85;97304.06;5022377;28;20057;-75
2021/10/17 09:00:34;;;;;;;2.72;2.42;;;;;;;17.21;65.51;97299.72;5024304;28;20443;-75
2021/10/17 09:03:02;;;;;;;2.30;2.10;;;;;;;17.51;62.76;97297.19;5022491;28;20402;-74
2021/10/17 09:05:40;;;;;;;2.60;2.40;;;;;;;17.42;62.71;97240.81;5023996;28;20045;-75
2021/10/17 09:08:08;;;;;;;2.60;2.40;;;;;;;17.90;61.56;97297.72;5023715;28;20053;-73
2021/10/17 09:10:36;;;;;;;2.38;2.17;;;;;;;17.63;60.39;97226.66;5023877;28;20067;-73
2021/10/17 09:13:15;;;;;;;2.42;2.22;;;;;;;17.63;58.35;97159.41;5022523;28;20084;-73
2021/10/17 09:15:43;;;;;;;2.75;2.65;;;;;;;17.83;57.16;97297.78;5022016;28;20065;-73
2021/10/17 09:18:19;;;;;;;4.65;3.65;;;;;;;18.18;60.14;97297.47;5022557;28;20244;-73
2021/10/17 09:20:46;;;;;;;2.55;2.35;;;;;;;18.29;57.07;97300.97;5023369;28;20060;-73
2021/10/17 09:23:29;;;;;;;3.17;2.88;;;;;;;18.64;54.95;97292.25;5022832;28;20509;-71
2021/10/17 09:25:58;;;;;;;2.92;2.72;;;;;;;18.24;54.32;97214.47;5023904;28;20053;-70
2021/10/17 09:28:30;;;;;;;3.20;2.90;;;;;;;18.58;56.00;97254.63;5022152;28;20453;-71
2021/10/17 09:31:04;;;;;;;2.88;2.58;;;;;;;19.07;55.29;97286.94;5022126;28;20594;-73
2021/10/17 09:33:50;;;;;;;2.40;2.30;;;;;;;19.22;54.64;97300.38;5023721;28;20059;-70
2021/10/17 09:36:22;;;;;;;2.25;2.10;;;;;;;15.68;54.01;96845.13;5021793;28;20500;-73
2021/10/17 09:39:38;;;;;;;2.33;2.23;;;;;;;18.89;53.34;97270.31;5022294;28;20050;-73
2021/10/17 09:41:49;;;;;;;3.67;2.45;;;;;;;18.91;54.61;97244.63;5022031;28;20057;-72
2021/10/17 09:44:16;;;;;;;2.72;2.53;;;;;;;19.28;53.89;97293.09;5023519;28;20460;-73
2021/10/17 09:46:56;;;;;;;4.32;2.90;;;;;;;19.45;53.60;97280.84;5023090;28;20053;-73
2021/10/17 09:49:23;;;;;;;2.42;2.22;;;;;;;19.83;51.60;97283.50;5021560;28;20057;-72
2021/10/17 09:52:08;;;;;;;3.50;3.20;;;;;;;19.70;52.57;97286.09;5023518;28;20061;-72
2021/10/17 09:54:37;;;;;;;2.72;2.53;;;;;;;19.50;53.26;97283.19;5023335;28;20468;-73
2021/10/17 09:57:06;;;;;;;2.85;2.65;;;;;;;18.99;54.88;97283.44;5023718;28;20053;-73
2021/10/17 09:59:34;;;;;;;2.92;2.72;;;;;;;18.18;54.54;97168.47;5021910;28;20061;-70
2021/10/17 10:02:04;;;;;;;3.40;3.20;;;;;;;18.31;54.97;97188.38;5023147;28;20056;-72
2021/10/17 10:04:31;;;;;;;3.60;3.03;;;;;;;18.93;54.76;97293.53;5021745;28;20053;-71
2021/10/17 10:06:59;;;;;;;3.58;3.28;;;;;;;18.77;55.65;97284.91;5023105;28;20059;-71
2021/10/17 10:09:30;;;;;;;3.00;2.80;;;;;;;18.69;55.31;97272.16;5022123;28;20053;-70
2021/10/17 10:11:58;;;;;;;2.28;2.08;;;;;;;18.97;53.56;97245.75;5023407;28;20135;-72
2021/10/17 10:14:25;;;;;;;4.32;3.10;;;;;;;19.24;53.77;97253.00;5022817;28;20089;-71
2021/10/17 10:16:55;;;;;;;3.63;3.25;;;;;;;19.45;51.71;97275.25;5022017;28;20135;-75
2021/10/17 10:19:23;;;;;;;3.60;3.30;;;;;;;18.92;52.23;97269.47;5021704;28;20570;-72
2021/10/17 10:21:50;;;;;;;3.47;3.25;;;;;;;18.92;52.44;97247.00;5023220;28;20053;-70
2021/10/17 10:24:18;;;;;;;2.15;2.05;;;;;;;19.12;53.07;97273.25;5021859;28;20041;-73
2021/10/17 10:26:52;;;;;;;2.80;2.60;;;;;;;19.02;53.04;97251.69;5023484;28;20053;-72
2021/10/17 10:29:28;;;;;;;2.40;2.30;;;;;;;18.83;52.87;97259.94;5023435;28;20073;-73
2021/10/17 10:31:57;;;;;;;4.65;3.30;;;;;;;19.12;53.52;97261.22;5023313;28;20099;-71
2021/10/17 10:34:24;;;;;;;3.92;3.53;;;;;;;19.30;51.87;97262.59;5026251;28;20144;-73
2021/10/17 10:36:53;;;;;;;2.80;2.60;;;;;;;18.87;52.23;97170.91;5025256;28;20067;-73
2021/10/17 10:39:22;;;;;;;2.83;2.72;;;;;;;19.50;50.73;97257.91;5025193;28;20530;-73
2021/10/17 10:42:18;;;;;;;2.90;2.70;;;;;;;19.41;50.98;97201.41;5026306;28;20053;-73
2021/10/17 10:44:44;;;;;;;3.15;2.95;;;;;;;20.01;48.93;97250.28;5025233;28;20057;-73
2021/10/17 10:47:28;;;;;;;3.22;3.03;;;;;;;20.39;49.07;97243.22;5025041;28;20049;-72
2021/10/17 10:49:56;;;;;;;;;;;;;;;20.39;49.68;97293.88;5026698;28;20488;-73
2021/10/17 10:52:28;;;;;;;2.67;2.58;;;;;;;20.39;48.80;97237.59;5025953;28;20307;-74
2021/10/17 10:55:03;;;;;;;2.83;2.73;;;;;;;20.19;49.16;97205.78;5026521;28;20049;-73
2021/10/17 10:57:41;;;;;;;3.83;3.53;;;;;;;20.48;48.76;97237.81;5026031;28;20065;-74
2021/10/17 11:00:10;;;;;;;3.72;3.47;;;;;;;20.34;48.58;97188.22;5024812;28;20472;-76
2021/10/17 11:02:39;;;;;;;2.80;2.70;;;;;;;20.90;47.19;97234.16;5026412;28;20045;-76
2021/10/17 11:05:15;;;;;;;5.28;4.15;;;;;;;21.01;48.00;97231.94;5026142;28;20085;-75
2021/10/17 11:07:46;;;;;;;3.70;3.40;;;;;;;21.34;47.48;97225.19;5024517;28;20049;-74
2021/10/17 11:10:22;;;;;;;2.85;2.75;;;;;;;21.30;46.30;97230.13;5026354;28;20045;-75
2021/10/17 11:12:51;;;;;;;3.38;3.08;;;;;;;21.11;46.96;97227.31;5024487;28;20596;-75
2021/10/17 11:15:20;;;;;;;6.60;3.40;;;;;;;20.77;46.83;97213.53;5025539;28;20069;-75
2021/10/17 11:17:58;;;;;;;2.90;2.70;;;;;;;20.39;47.42;97209.44;5024165;28;20057;-73
2021/10/17 11:20:28;;;;;;;3.28;2.97;;;;;;;19.93;50.07;97231.94;5025448;28;20622;-74
2021/10/17 11:22:57;;;;;;;3.05;2.75;;;;;;;19.92;50.50;97222.69;5024650;28;20064;-75
2021/10/17 11:25:25;;;;;;;6.68;3.08;;;;;;;19.73;49.99;97228.25;5023977;28;20053;-72
2021/10/17 11:27:53;;;;;;;3.55;3.20;;;;;;;19.47;50.11;97227.03;5025941;28;20491;-72
2021/10/17 11:30:33;;;;;;;3.80;3.50;;;;;;;19.07;50.42;97172.63;5025820;28;20060;-73
2021/10/17 11:33:16;;;;;;;3.55;3.25;;;;;;;19.46;49.78;97215.00;5025805;28;20481;-73
2021/10/17 11:35:42;;;;;;;4.82;2.90;;;;;;;18.69;51.53;97120.59;5025325;28;20053;-73